Time;durP1;ratioP1;P1;durP2;ratioP2;P2;SDS_P1;SDS_P2;PMS_P1;PMS_P2;Temp;Humidity;BMP_temperature;BMP_pressure;BME280_temperature;BME280_humidity;BME280_pressure;Samples;Min_cycle;Max_cycle;Signal;HPM_P1;HPM_P2
2023/06/17 00:01:42;;;;;;;8.77;3.03;;;19.90;99.90;;;;;;4938902;29;20229;-92
2023/06/17 00:04:17;;;;;;;9.50;2.87;;;19.90;99.90;;;;;;4940069;29;20214;-90
2023/06/17 00:06:50;;;;;;;7.03;2.60;;;19.60;99.90;;;;;;4942424;29;20231;-90
2023/06/17 00:09:22;;;;;;;7.20;2.70;;;19.60;99.90;;;;;;4940615;29;20208;-89
2023/06/17 00:11:57;;;;;;;4.93;2.70;;;19.60;99.90;;;;;;4936961;29;20249;-94
2023/06/17 00:14:29;;;;;;;5.20;2.30;;;19.60;99.90;;;;;;4947534;29;20275;-93
2023/06/17 00:17:01;;;;;;;6.40;2.50;;;19.50;99.90;;;;;;4945136;29;20221;-88
2023/06/17 00:19:32;;;;;;;6.67;2.60;;;19.50;99.90;;;;;;4944568;29;20276;-89
2023/06/17 00:22:04;;;;;;;6.30;2.63;;;19.50;99.90;;;;;;4939133;29;20231;-89
2023/06/17 00:24:35;;;;;;;7.13;2.50;;;19.40;99.90;;;;;;4932183;29;20213;-88
2023/06/17 00:27:10;;;;;;;6.13;2.80;;;19.30;99.90;;;;;;4946486;29;20225;-90
2023/06/17 00:29:44;;;;;;;7.80;2.57;;;19.30;99.90;;;;;;4935090;29;20319;-91
2023/06/17 00:32:16;;;;;;;8.90;3.00;;;19.30;99.90;;;;;;4938369;29;20208;-89
2023/06/17 00:34:47;;;;;;;9.00;2.40;;;19.20;99.90;;;;;;4942290;29;20212;-91
2023/06/17 00:37:19;;;;;;;7.33;2.63;;;19.10;99.90;;;;;;4937352;29;20242;-92
2023/06/17 00:39:51;;;;;;;5.93;2.50;;;18.90;99.90;;;;;;4932475;29;20208;-92
2023/06/17 00:42:25;;;;;;;5.00;2.23;;;18.80;99.90;;;;;;4934094;29;20208;-93
2023/06/17 00:44:57;;;;;;;4.40;2.30;;;18.70;99.90;;;;;;4920725;29;20681;-91
2023/06/17 00:47:32;;;;;;;5.70;2.43;;;18.40;99.90;;;;;;4931588;29;20657;-90
2023/06/17 00:50:08;;;;;;;4.57;2.47;;;18.30;99.90;;;;;;4938411;29;20656;-91
2023/06/17 00:52:41;;;;;;;5.83;2.43;;;18.00;99.90;;;;;;4934458;29;20208;-91
2023/06/17 00:55:14;;;;;;;5.57;2.50;;;17.80;99.90;;;;;;4934014;29;20264;-90
2023/06/17 00:57:48;;;;;;;6.93;2.50;;;17.70;99.90;;;;;;4933772;29;20232;-93
2023/06/17 01:00:22;;;;;;;5.20;2.07;;;17.60;99.90;;;;;;4925983;29;20211;-94
2023/06/17 01:02:56;;;;;;;4.10;1.70;;;17.40;99.90;;;;;;4924485;29;20216;-94
2023/06/17 01:05:28;;;;;;;5.20;1.87;;;17.20;99.90;;;;;;4933196;29;20642;-93
2023/06/17 01:08:12;;;;;;;4.53;2.00;;;17.00;99.90;;;;;;4947021;29;20236;-91
2023/06/17 01:10:53;;;;;;;6.27;2.33;;;16.90;99.90;;;;;;4937469;29;20209;-91
2023/06/17 01:13:30;;;;;;;6.60;2.00;;;16.70;99.90;;;;;;4940887;29;20209;-90
2023/06/17 01:16:04;;;;;;;5.30;2.23;;;16.60;99.90;;;;;;4931213;29;20205;-91
2023/06/17 01:18:40;;;;;;;4.03;1.80;;;16.50;99.90;;;;;;4930083;29;20208;-90
2023/06/17 01:21:12;;;;;;;5.07;2.03;;;16.50;99.90;;;;;;4938495;29;20275;-91
2023/06/17 01:23:44;;;;;;;3.70;1.60;;;16.40;99.90;;;;;;4936782;29;20224;-91
2023/06/17 01:26:19;;;;;;;3.63;1.50;;;16.50;99.90;;;;;;4926916;29;20213;-91
2023/06/17 01:28:53;;;;;;;3.47;1.40;;;16.40;99.90;;;;;;4934928;29;20734;-89
2023/06/17 01:31:26;;;;;;;2.47;1.30;;;16.40;99.90;;;;;;4940647;29;20686;-91
2023/06/17 01:34:02;;;;;;;3.47;1.57;;;16.40;99.90;;;;;;4937574;29;20239;-90
2023/06/17 01:36:37;;;;;;;2.60;1.30;;;16.30;99.90;;;;;;4938255;29;20283;-90
2023/06/17 01:39:14;;;;;;;2.23;1.20;;;16.20;99.90;;;;;;4924561;29;20292;-90
2023/06/17 01:41:54;;;;;;;3.00;1.93;;;16.20;99.90;;;;;;4937084;29;20260;-90
2023/06/17 01:44:27;;;;;;;9.30;1.90;;;16.20;99.90;;;;;;4933193;29;20216;-90
2023/06/17 01:46:59;;;;;;;3.53;1.93;;;16.20;99.90;;;;;;4938353;29;20319;-90
2023/06/17 01:49:31;;;;;;;8.27;2.70;;;16.10;99.90;;;;;;4926247;29;20216;-90
2023/06/17 01:52:02;;;;;;;3.13;1.60;;;16.00;99.90;;;;;;4936929;29;20626;-91
2023/06/17 01:54:33;;;;;;;7.87;2.20;;;15.90;99.90;;;;;;4937043;29;20284;-89
2023/06/17 01:57:07;;;;;;;10.90;2.47;;;15.80;99.90;;;;;;4926802;29;20545;-90
2023/06/17 01:59:39;;;;;;;5.37;2.03;;;15.80;99.90;;;;;;4930644;29;20212;-90
2023/06/17 02:02:10;;;;;;;7.47;2.30;;;15.70;99.90;;;;;;4937460;29;20691;-90
2023/06/17 02:04:42;;;;;;;5.40;2.00;;;15.70;99.90;;;;;;4925371;29;20210;-89
2023/06/17 02:07:13;;;;;;;9.17;1.70;;;15.60;99.90;;;;;;4936906;29;20605;-89
2023/06/17 02:09:44;;;;;;;12.97;2.03;;;15.50;99.90;;;;;;4937572;29;20213;-90
2023/06/17 02:12:18;;;;;;;2.00;1.17;;;15.50;99.90;;;;;;4938802;29;20209;-86
2023/06/17 02:14:49;;;;;;;2.30;1.50;;;15.50;99.90;;;;;;4927721;29;20213;-86
2023/06/17 02:17:23;;;;;;;1.27;1.10;;;15.40;99.90;;;;;;4936800;29;20244;-86
2023/06/17 02:19:55;;;;;;;4.37;1.70;;;15.50;99.90;;;;;;4944462;29;20225;-95
2023/06/17 02:22:27;;;;;;;2.23;1.30;;;15.60;99.90;;;;;;4951309;29;20227;-94
2023/06/17 02:24:58;;;;;;;3.03;1.40;;;15.60;99.90;;;;;;4604152;28;9999789;-93
2023/06/17 02:27:32;;;;;;;2.70;1.30;;;15.60;99.90;;;;;;4952986;28;20212;-95
2023/06/17 02:30:04;;;;;;;2.00;1.33;;;15.70;99.90;;;;;;4961101;28;20200;-94
2023/06/17 02:32:35;;;;;;;2.30;1.10;;;15.60;99.90;;;;;;4956219;28;20563;-96
2023/06/17 02:35:07;;;;;;;11.23;3.53;;;15.70;99.90;;;;;;4932109;29;20223;-83
2023/06/17 02:37:38;;;;;;;4.27;1.80;;;15.60;99.90;;;;;;4933004;29;20699;-83
2023/06/17 02:40:10;;;;;;;1.97;1.60;;;15.60;99.90;;;;;;4932319;29;20302;-84
2023/06/17 02:42:45;;;;;;;2.77;1.57;;;15.60;99.90;;;;;;4924511;29;20216;-92
2023/06/17 02:45:18;;;;;;;1.73;1.10;;;15.60;99.90;;;;;;4930641;29;20220;-88
2023/06/17 02:47:50;;;;;;;1.57;0.83;;;15.60;99.90;;;;;;4937897;29;20359;-86
2023/06/17 02:50:23;;;;;;;2.50;1.00;;;15.60;99.90;;;;;;4942399;29;21010;-87
2023/06/17 02:52:55;;;;;;;1.27;0.67;;;15.60;99.90;;;;;;4932828;29;20216;-88
2023/06/17 02:55:27;;;;;;;1.00;0.70;;;15.50;99.90;;;;;;4929339;29;20219;-89
2023/06/17 02:58:02;;;;;;;0.70;0.60;;;15.60;99.90;;;;;;4922773;29;20209;-88
2023/06/17 03:00:36;;;;;;;1.50;0.93;;;15.60;99.90;;;;;;4937433;29;20217;-89
2023/06/17 03:03:08;;;;;;;1.03;0.80;;;15.60;99.90;;;;;;4935019;29;20212;-90
2023/06/17 03:05:41;;;;;;;1.80;1.03;;;15.60;99.90;;;;;;4937355;29;20248;-93
2023/06/17 03:08:14;;;;;;;1.47;1.10;;;15.70;99.90;;;;;;4927374;29;20722;-89
2023/06/17 03:10:46;;;;;;;6.93;1.63;;;15.60;99.90;;;;;;4933742;29;20248;-90
2023/06/17 03:13:19;;;;;;;4.90;2.00;;;15.60;99.90;;;;;;4924476;29;20299;-89
2023/06/17 03:15:50;;;;;;;4.30;1.93;;;15.50;99.90;;;;;;4927862;29;20216;-89
2023/06/17 03:18:23;;;;;;;3.30;1.60;;;15.50;99.90;;;;;;4930735;29;20215;-90
2023/06/17 03:20:55;;;;;;;5.43;1.63;;;15.50;99.90;;;;;;4929668;29;20244;-91
2023/06/17 03:23:26;;;;;;;2.87;1.10;;;15.40;99.90;;;;;;4932914;29;20207;-83
2023/06/17 03:25:58;;;;;;;1.00;0.90;;;15.50;99.90;;;;;;4936110;29;20227;-94
2023/06/17 03:28:31;;;;;;;2.27;1.30;;;15.40;99.90;;;;;;4933808;29;20243;-93
2023/06/17 03:31:04;;;;;;;1.20;1.10;;;15.40;99.90;;;;;;4930609;29;20223;-93
2023/06/17 03:33:35;;;;;;;2.30;1.43;;;15.40;99.90;;;;;;4935671;29;20223;-89
2023/06/17 03:36:08;;;;;;;4.77;1.70;;;15.30;99.90;;;;;;4934726;29;20307;-88
2023/06/17 03:38:39;;;;;;;3.80;1.63;;;15.30;99.90;;;;;;4921304;29;20212;-91
2023/06/17 03:41:10;;;;;;;2.30;1.80;;;15.30;99.90;;;;;;4933613;29;20208;-89
2023/06/17 03:43:44;;;;;;;3.03;2.00;;;15.30;99.90;;;;;;4935450;29;20275;-87
2023/06/17 03:46:15;;;;;;;4.80;2.03;;;15.30;99.90;;;;;;4928712;29;20201;-90
2023/06/17 03:48:46;;;;;;;3.37;2.77;;;15.30;99.90;;;;;;4927897;29;20262;-86
2023/06/17 03:51:18;;;;;;;5.47;3.00;;;15.30;99.90;;;;;;4922928;29;20305;-88
2023/06/17 03:53:50;;;;;;;5.93;2.63;;;15.40;99.90;;;;;;4929143;29;20205;-91
2023/06/17 03:56:21;;;;;;;4.83;2.93;;;15.20;99.90;;;;;;4933458;29;20636;-95
2023/06/17 03:58:57;;;;;;;5.37;2.97;;;15.20;99.90;;;;;;4927012;29;20213;-94
2023/06/17 04:01:30;;;;;;;4.77;2.90;;;15.10;99.90;;;;;;4936275;29;20216;-91
2023/06/17 04:04:01;;;;;;;6.73;3.03;;;15.20;99.90;;;;;;4926250;29;20211;-92
2023/06/17 04:06:33;;;;;;;8.17;3.10;;;15.10;99.90;;;;;;4929654;29;20220;-86
2023/06/17 04:09:05;;;;;;;4.70;2.70;;;15.00;99.90;;;;;;4933622;29;20237;-90
2023/06/17 04:11:36;;;;;;;6.60;3.00;;;15.20;99.90;;;;;;4936448;29;20331;-86
2023/06/17 04:14:08;;;;;;;9.37;2.80;;;15.10;99.90;;;;;;4928959;29;20205;-88
2023/06/17 04:16:41;;;;;;;3.93;2.70;;;15.00;99.90;;;;;;4924932;29;20357;-87
2023/06/17 04:19:17;;;;;;;3.43;2.30;;;15.00;99.90;;;;;;4933015;29;20213;-91
2023/06/17 04:21:48;;;;;;;4.77;2.27;;;15.10;99.90;;;;;;4935611;29;20266;-90
2023/06/17 04:24:19;;;;;;;3.57;2.03;;;15.10;99.90;;;;;;4932959;29;20212;-92
2023/06/17 04:26:52;;;;;;;3.20;1.97;;;15.10;99.90;;;;;;4936646;29;20296;-86
2023/06/17 04:29:29;;;;;;;3.23;1.87;;;15.10;99.90;;;;;;4928829;29;20232;-85
2023/06/17 04:32:01;;;;;;;4.00;2.07;;;15.10;99.90;;;;;;4932626;29;20207;-88
2023/06/17 04:34:33;;;;;;;5.07;2.23;;;15.10;99.90;;;;;;4934647;29;20683;-90
2023/06/17 04:37:04;;;;;;;6.50;2.30;;;15.10;99.90;;;;;;4940803;29;20205;-88
2023/06/17 04:39:35;;;;;;;4.00;1.97;;;15.10;99.90;;;;;;4940496;29;20189;-87
2023/06/17 04:42:08;;;;;;;4.97;2.20;;;15.10;99.90;;;;;;4942716;28;20205;-92
2023/06/17 04:44:41;;;;;;;4.03;2.10;;;15.10;99.90;;;;;;4936020;29;20647;-92
2023/06/17 04:47:13;;;;;;;2.50;1.60;;;15.10;99.90;;;;;;4934753;29;20220;-93
2023/06/17 04:49:44;;;;;;;3.60;1.90;;;15.10;99.90;;;;;;4930723;29;20233;-92
2023/06/17 04:52:19;;;;;;;3.67;1.50;;;15.10;99.90;;;;;;4936927;29;20215;-92
2023/06/17 04:54:51;;;;;;;3.47;1.80;;;15.10;99.90;;;;;;4933494;29;20293;-91
2023/06/17 04:57:23;;;;;;;1.87;1.33;;;15.10;99.90;;;;;;4945358;29;20224;-92
2023/06/17 04:59:57;;;;;;;1.77;1.40;;;15.10;99.90;;;;;;4932752;29;20208;-93
2023/06/17 05:02:29;;;;;;;1.87;1.23;;;15.10;99.90;;;;;;4927825;29;20236;-93
2023/06/17 05:05:00;;;;;;;2.53;1.40;;;15.10;99.90;;;;;;4932033;29;20720;-93
2023/06/17 05:07:31;;;;;;;2.10;1.47;;;15.10;99.90;;;;;;4929014;29;20209;-94
2023/06/17 05:10:04;;;;;;;3.37;1.40;;;15.10;99.90;;;;;;4935131;29;20244;-94
2023/06/17 05:12:36;;;;;;;1.70;1.40;;;15.10;99.90;;;;;;4925803;29;20236;-94
2023/06/17 05:15:10;;;;;;;1.90;1.00;;;15.10;99.90;;;;;;4930496;29;20573;-95
2023/06/17 05:17:41;;;;;;;3.37;1.40;;;15.10;99.90;;;;;;4929421;29;20294;-95
2023/06/17 05:20:14;;;;;;;1.97;1.50;;;15.10;99.90;;;;;;4930208;29;20228;-95
2023/06/17 05:22:45;;;;;;;2.27;1.60;;;15.10;99.90;;;;;;4928878;29;20251;-96
2023/06/17 05:25:17;;;;;;;2.90;1.30;;;15.10;99.90;;;;;;4927683;29;20292;-95
2023/06/17 05:27:50;;;;;;;1.77;1.40;;;15.10;99.90;;;;;;4934391;29;20291;-93
2023/06/17 05:30:23;;;;;;;1.20;1.07;;;15.20;99.90;;;;;;4933405;29;20236;-93
2023/06/17 05:32:55;;;;;;;2.50;1.40;;;15.20;99.90;;;;;;4930312;29;20209;-93
2023/06/17 05:35:27;;;;;;;2.67;1.50;;;15.20;99.90;;;;;;4932569;29;20204;-94
2023/06/17 05:37:59;;;;;;;2.00;1.60;;;15.10;99.90;;;;;;4927751;29;20218;-94
2023/06/17 05:40:29;;;;;;;2.30;1.70;;;15.20;99.90;;;;;;4920725;29;20205;-93
2023/06/17 05:43:01;;;;;;;2.47;1.40;;;15.20;99.90;;;;;;4919391;29;20216;-95
2023/06/17 05:45:34;;;;;;;2.40;1.30;;;15.10;99.90;;;;;;4929720;29;20219;-92
2023/06/17 05:48:06;;;;;;;3.90;1.40;;;15.20;99.90;;;;;;4939787;29;20219;-93
2023/06/17 05:50:37;;;;;;;3.40;1.70;;;15.20;99.90;;;;;;4946166;29;20243;-92
2023/06/17 05:53:09;;;;;;;2.43;1.63;;;15.20;99.90;;;;;;4942065;29;20212;-92
2023/06/17 05:55:41;;;;;;;4.27;1.50;;;15.10;99.90;;;;;;4937474;29;20211;-93
2023/06/17 05:58:12;;;;;;;2.90;1.50;;;15.20;99.90;;;;;;4940817;29;20204;-93
2023/06/17 06:00:46;;;;;;;3.90;1.23;;;15.20;99.90;;;;;;4937956;29;20477;-93
2023/06/17 06:03:17;;;;;;;1.47;1.27;;;15.20;99.90;;;;;;4939596;29;20210;-92
2023/06/17 06:05:49;;;;;;;2.27;1.30;;;15.30;99.90;;;;;;4940114;29;20665;-92
2023/06/17 06:08:20;;;;;;;2.20;1.40;;;15.30;99.90;;;;;;4938075;29;20220;-92
2023/06/17 06:10:52;;;;;;;2.93;1.53;;;15.30;99.90;;;;;;4590118;28;10000063;-93
2023/06/17 06:13:23;;;;;;;2.47;1.10;;;15.30;99.90;;;;;;4939343;29;20200;-94
2023/06/17 06:15:56;;;;;;;2.03;1.07;;;15.30;99.90;;;;;;4933155;29;20654;-92
2023/06/17 06:18:29;;;;;;;3.87;1.03;;;15.30;99.90;;;;;;4931482;29;20220;-94
2023/06/17 06:21:00;;;;;;;3.23;1.10;;;15.30;99.90;;;;;;4936206;29;20212;-93
2023/06/17 06:23:31;;;;;;;1.20;1.10;;;15.30;99.90;;;;;;4920716;29;20581;-94
2023/06/17 06:26:03;;;;;;;0.90;0.83;;;15.30;99.90;;;;;;4937516;29;20204;-92
2023/06/17 06:28:35;;;;;;;1.17;1.07;;;15.30;99.90;;;;;;4934620;29;20255;-93
2023/06/17 06:31:10;;;;;;;2.50;1.00;;;15.30;99.90;;;;;;4931008;29;20224;-94
2023/06/17 06:33:42;;;;;;;1.23;1.00;;;15.30;99.90;;;;;;4927731;29;20628;-93
2023/06/17 06:36:14;;;;;;;1.63;1.37;;;15.20;99.90;;;;;;4920904;29;20265;-93
2023/06/17 06:38:46;;;;;;;2.03;1.70;;;15.20;99.90;;;;;;4939463;29;20798;-93
2023/06/17 06:41:17;;;;;;;3.87;2.40;;;15.30;99.90;;;;;;4938952;29;20318;-94
2023/06/17 06:43:49;;;;;;;3.20;2.70;;;15.30;99.90;;;;;;4933166;29;20217;-92
2023/06/17 06:46:22;;;;;;;5.80;2.67;;;15.30;99.90;;;;;;4950655;29;20207;-94
2023/06/17 06:48:54;;;;;;;4.77;2.70;;;15.30;99.90;;;;;;4960813;29;20200;-93
2023/06/17 06:51:26;;;;;;;3.60;2.80;;;15.20;99.90;;;;;;4954374;29;20225;-93
2023/06/17 06:53:57;;;;;;;5.90;2.57;;;15.10;99.90;;;;;;4944330;29;20375;-92
2023/06/17 06:56:28;;;;;;;6.83;3.10;;;15.20;99.90;;;;;;4926075;29;20215;-94
2023/06/17 06:58:59;;;;;;;2.90;2.60;;;15.10;99.90;;;;;;4939645;29;20197;-94
2023/06/17 07:01:33;;;;;;;6.83;2.60;;;15.10;99.90;;;;;;4938964;29;20209;-91
2023/06/17 07:04:05;;;;;;;7.07;2.63;;;14.90;99.90;;;;;;4938768;29;20251;-92
2023/06/17 07:06:37;;;;;;;6.17;2.43;;;15.00;99.90;;;;;;4938041;29;20212;-92
2023/06/17 07:09:08;;;;;;;5.73;2.33;;;14.90;99.90;;;;;;4938010;29;20525;-92
2023/06/17 07:11:39;;;;;;;4.03;2.23;;;14.90;99.90;;;;;;4925545;29;20216;-93
2023/06/17 07:14:10;;;;;;;3.10;1.50;;;14.80;99.90;;;;;;4929559;29;20208;-93
2023/06/17 07:16:44;;;;;;;3.97;1.80;;;14.70;99.90;;;;;;4920444;29;20633;-93
2023/06/17 07:19:15;;;;;;;4.03;1.50;;;14.60;99.90;;;;;;4927001;29;20213;-93
2023/06/17 07:21:48;;;;;;;4.13;1.87;;;14.50;99.90;;;;;;4929933;29;20224;-92
2023/06/17 07:24:20;;;;;;;4.73;2.20;;;14.50;99.90;;;;;;4919626;29;20215;-93
2023/06/17 07:26:51;;;;;;;4.83;1.90;;;14.40;99.90;;;;;;4919328;29;20213;-94
2023/06/17 07:29:23;;;;;;;5.70;2.00;;;14.30;99.90;;;;;;4936693;29;20212;-93
2023/06/17 07:31:56;;;;;;;3.60;2.50;;;14.30;99.90;;;;;;4922975;29;20587;-94
2023/06/17 07:34:27;;;;;;;2.70;2.00;;;14.30;99.90;;;;;;4935739;29;20215;-94
2023/06/17 07:36:58;;;;;;;4.57;1.80;;;14.30;99.90;;;;;;4939785;29;20621;-95
2023/06/17 07:39:30;;;;;;;5.93;2.10;;;14.20;99.90;;;;;;4938190;29;20208;-93
2023/06/17 07:42:01;;;;;;;4.17;1.80;;;14.20;99.90;;;;;;4938538;29;20295;-94
2023/06/17 07:44:32;;;;;;;4.17;1.60;;;14.10;99.90;;;;;;4920089;29;20236;-93
2023/06/17 07:47:07;;;;;;;4.70;2.30;;;14.10;99.90;;;;;;4919758;29;20213;-93
2023/06/17 07:49:38;;;;;;;5.87;2.20;;;14.10;99.90;;;;;;4936425;29;20647;-93
2023/06/17 07:52:09;;;;;;;2.67;1.70;;;14.10;99.90;;;;;;4941332;29;20214;-93
2023/06/17 07:54:41;;;;;;;4.33;1.80;;;14.00;99.90;;;;;;4941144;29;20215;-93
2023/06/17 07:57:12;;;;;;;2.60;1.67;;;14.00;99.90;;;;;;4945603;29;20732;-94
2023/06/17 07:59:44;;;;;;;4.07;1.80;;;14.00;99.90;;;;;;4943906;29;20216;-92
2023/06/17 08:02:18;;;;;;;6.10;1.80;;;14.00;99.90;;;;;;4605341;28;9999606;-92
2023/06/17 08:04:51;;;;;;;3.80;1.83;;;14.00;99.90;;;;;;4946866;29;20246;-92
2023/06/17 08:07:23;;;;;;;3.73;1.80;;;13.90;99.90;;;;;;4945267;29;20200;-92
2023/06/17 08:09:54;;;;;;;5.03;2.00;;;13.90;99.90;;;;;;4932136;29;20232;-91
2023/06/17 08:12:26;;;;;;;5.67;1.70;;;13.80;99.90;;;;;;4932293;29;20213;-92
2023/06/17 08:14:58;;;;;;;3.10;1.90;;;13.80;99.90;;;;;;4938485;29;20204;-90
2023/06/17 08:17:32;;;;;;;4.40;1.57;;;13.80;99.90;;;;;;4950232;29;20216;-92
2023/06/17 08:20:04;;;;;;;2.50;1.67;;;13.90;99.90;;;;;;4951311;29;20232;-90
2023/06/17 08:22:35;;;;;;;3.43;1.83;;;13.80;99.90;;;;;;4948659;29;20205;-92
2023/06/17 08:25:08;;;;;;;4.80;1.70;;;13.80;99.90;;;;;;4922924;29;20272;-92
2023/06/17 08:27:42;;;;;;;2.67;1.40;;;13.60;99.90;;;;;;4929496;29;20620;-93
2023/06/17 08:30:14;;;;;;;4.87;1.50;;;13.60;99.90;;;;;;4940629;29;20234;-91
2023/06/17 08:32:47;;;;;;;3.10;1.43;;;13.60;99.90;;;;;;4919365;29;20279;-92
2023/06/17 08:35:19;;;;;;;4.47;1.60;;;13.50;99.90;;;;;;4919633;29;20247;-92
2023/06/17 08:37:51;;;;;;;3.90;1.73;;;13.40;99.90;;;;;;4936242;29;20595;-92
2023/06/17 08:40:25;;;;;;;6.30;2.43;;;13.40;99.90;;;;;;4935874;29;20208;-91
2023/06/17 08:43:01;;;;;;;7.20;2.30;;;13.40;99.90;;;;;;4929862;29;20213;-90
2023/06/17 08:45:33;;;;;;;8.47;2.10;;;13.30;99.90;;;;;;4934114;29;20246;-91
2023/06/17 08:48:11;;;;;;;4.70;1.83;;;13.40;99.90;;;;;;4937012;29;20208;-91
2023/06/17 08:50:44;;;;;;;3.93;1.67;;;13.30;99.90;;;;;;4937376;29;20232;-92
2023/06/17 08:53:16;;;;;;;3.17;1.67;;;13.30;99.90;;;;;;4936714;29;20319;-91
2023/06/17 08:55:49;;;;;;;6.27;1.83;;;13.30;99.90;;;;;;4947555;29;20225;-91
2023/06/17 08:58:21;;;;;;;7.20;1.93;;;13.30;99.90;;;;;;4945636;29;20194;-91
2023/06/17 09:00:54;;;;;;;5.47;2.07;;;13.30;99.90;;;;;;4941257;29;20223;-92
2023/06/17 09:03:29;;;;;;;4.47;1.87;;;13.20;99.90;;;;;;4938864;29;20622;-93
2023/06/17 09:06:01;;;;;;;4.10;2.20;;;13.20;99.90;;;;;;4919115;29;20208;-93
2023/06/17 09:08:33;;;;;;;6.77;2.30;;;13.10;99.90;;;;;;4917652;29;20666;-93
2023/06/17 09:11:06;;;;;;;5.73;1.57;;;13.10;99.90;;;;;;4918576;29;20245;-93
2023/06/17 09:13:38;;;;;;;3.63;1.67;;;13.00;99.90;;;;;;4935192;29;20295;-93
2023/06/17 09:16:11;;;;;;;3.60;1.70;;;13.00;99.90;;;;;;4936060;29;20255;-94
2023/06/17 09:18:45;;;;;;;6.20;1.70;;;13.00;99.90;;;;;;4938148;29;20212;-93
2023/06/17 09:21:19;;;;;;;7.30;1.60;;;13.00;99.90;;;;;;4940765;29;20216;-93
2023/06/17 09:23:56;;;;;;;7.53;2.00;;;12.80;99.90;;;;;;4939730;29;20211;-94
2023/06/17 09:26:31;;;;;;;5.40;1.97;;;12.80;99.90;;;;;;4586455;29;9999872;-94
2023/06/17 09:29:03;;;;;;;6.00;2.13;;;12.80;99.90;;;;;;4924181;29;20219;-94
2023/06/17 09:31:35;;;;;;;7.03;1.80;;;12.70;99.90;;;;;;4939372;29;20228;-94
2023/06/17 09:34:12;;;;;;;6.10;1.70;;;12.70;99.90;;;;;;4939231;29;20216;-93
2023/06/17 09:36:43;;;;;;;6.23;1.97;;;12.70;99.90;;;;;;4939216;29;20212;-92
2023/06/17 09:39:15;;;;;;;6.83;1.93;;;12.70;99.90;;;;;;4944696;29;20207;-93
2023/06/17 09:41:48;;;;;;;6.80;2.10;;;12.70;99.90;;;;;;4959858;29;20211;-92
2023/06/17 09:44:22;;;;;;;6.07;1.90;;;12.70;99.90;;;;;;4959544;29;20226;-94
2023/06/17 09:46:55;;;;;;;7.53;2.03;;;12.70;99.90;;;;;;4924192;29;20219;-92
2023/06/17 09:49:28;;;;;;;4.87;1.80;;;12.60;99.90;;;;;;4943069;28;20205;-91
2023/06/17 09:52:02;;;;;;;4.00;1.50;;;12.60;99.90;;;;;;4940727;29;20259;-92
2023/06/17 09:54:35;;;;;;;6.20;2.30;;;12.60;99.90;;;;;;4941034;29;20223;-92
2023/06/17 09:57:13;;;;;;;5.63;1.90;;;12.60;99.90;;;;;;4924010;29;20296;-92
2023/06/17 09:59:47;;;;;;;7.03;1.80;;;12.60;99.90;;;;;;4920522;29;20209;-92
2023/06/17 10:02:19;;;;;;;8.23;2.07;;;12.50;99.90;;;;;;4921506;29;20299;-93
2023/06/17 10:04:53;;;;;;;6.73;1.70;;;12.50;99.90;;;;;;4921766;29;20205;-90
2023/06/17 10:07:26;;;;;;;4.30;1.70;;;12.60;99.90;;;;;;4939844;29;20204;-93
2023/06/17 10:09:59;;;;;;;5.40;1.97;;;12.50;99.90;;;;;;4940565;29;20212;-91
2023/06/17 10:12:31;;;;;;;9.00;2.23;;;12.50;99.90;;;;;;4931981;29;20236;-92
2023/06/17 10:15:05;;;;;;;5.13;2.00;;;12.50;99.90;;;;;;4925294;29;20213;-93
2023/06/17 10:17:38;;;;;;;3.63;1.60;;;12.50;99.90;;;;;;4921113;29;20611;-94
2023/06/17 10:20:14;;;;;;;5.60;1.70;;;12.40;99.90;;;;;;4931323;29;20259;-93
2023/06/17 10:22:46;;;;;;;6.47;2.00;;;12.40;99.90;;;;;;4940035;29;20258;-94
2023/06/17 10:25:18;;;;;;;6.97;1.70;;;12.40;99.90;;;;;;4939586;29;20311;-93
2023/06/17 10:27:50;;;;;;;7.00;1.73;;;12.40;99.90;;;;;;4937759;29;20207;-94
2023/06/17 10:30:28;;;;;;;6.23;1.70;;;12.30;99.90;;;;;;4919960;29;20213;-94
2023/06/17 10:33:01;;;;;;;5.33;1.70;;;12.30;99.90;;;;;;4952047;29;20250;-93
2023/06/17 10:35:53;;;;;;;6.37;1.80;;;12.30;99.90;;;;;;4957859;29;20204;-94
2023/06/17 10:38:33;;;;;;;7.43;2.10;;;12.20;99.90;;;;;;4934784;29;20209;-94
2023/06/17 10:41:04;;;;;;;8.10;2.03;;;12.20;99.90;;;;;;4935916;29;20220;-93
2023/06/17 10:43:39;;;;;;;8.83;2.20;;;12.10;99.90;;;;;;4940408;29;20208;-94
2023/06/17 10:46:11;;;;;;;8.00;2.33;;;12.10;99.90;;;;;;4940075;29;20212;-93
2023/06/17 10:48:43;;;;;;;5.47;1.87;;;12.00;99.90;;;;;;4939177;29;20208;-92
2023/06/17 10:51:17;;;;;;;5.43;1.67;;;12.00;99.90;;;;;;4939616;29;20268;-93
2023/06/17 10:53:51;;;;;;;6.83;1.90;;;12.10;99.90;;;;;;4939161;29;20211;-94
2023/06/17 10:56:22;;;;;;;8.27;2.10;;;12.10;99.90;;;;;;4939430;29;20216;-94
2023/06/17 10:58:53;;;;;;;5.47;1.50;;;12.00;99.90;;;;;;4949997;29;20216;-92
2023/06/17 11:01:25;;;;;;;8.53;2.17;;;12.10;99.90;;;;;;4951033;28;20216;-93
2023/06/17 11:04:07;;;;;;;8.07;2.20;;;12.10;99.90;;;;;;4948598;29;20205;-92
2023/06/17 11:06:41;;;;;;;7.63;1.70;;;12.10;99.90;;;;;;4943442;29;21145;-91
2023/06/17 11:09:13;;;;;;;6.40;1.90;;;12.10;99.90;;;;;;4928155;29;20251;-92
2023/06/17 11:11:44;;;;;;;6.73;1.80;;;12.10;99.90;;;;;;4928712;29;20258;-93
2023/06/17 11:14:20;;;;;;;4.07;1.43;;;12.10;99.90;;;;;;4939795;29;20247;-93
2023/06/17 11:16:52;;;;;;;5.80;1.70;;;12.10;99.90;;;;;;4921138;29;20642;-93
2023/06/17 11:19:24;;;;;;;7.77;2.17;;;12.10;99.90;;;;;;4928523;29;20227;-94
2023/06/17 11:22:03;;;;;;;4.77;1.50;;;12.10;99.90;;;;;;4939455;29;20319;-93
2023/06/17 11:24:35;;;;;;;6.47;1.80;;;12.10;99.90;;;;;;4938000;29;20278;-94
2023/06/17 11:27:10;;;;;;;9.03;1.93;;;12.10;99.90;;;;;;4938915;29;20256;-93
2023/06/17 11:29:43;;;;;;;9.07;1.80;;;12.10;99.90;;;;;;4938462;29;20239;-94
2023/06/17 11:32:15;;;;;;;5.70;1.70;;;12.10;99.90;;;;;;4924387;29;20245;-92
2023/06/17 11:34:46;;;;;;;6.23;1.70;;;12.10;99.90;;;;;;4919812;29;20205;-94
2023/06/17 11:37:21;;;;;;;7.67;1.93;;;12.10;99.90;;;;;;4931639;29;20208;-93
2023/06/17 11:39:57;;;;;;;7.67;2.00;;;12.10;99.90;;;;;;4937875;29;20271;-93
2023/06/17 11:42:29;;;;;;;7.40;1.53;;;12.10;99.90;;;;;;4932900;29;20662;-94
2023/06/17 11:45:01;;;;;;;7.97;1.97;;;12.10;99.90;;;;;;4921875;29;20216;-94
2023/06/17 11:47:37;;;;;;;7.13;2.10;;;12.10;99.90;;;;;;4935530;29;20211;-93
2023/06/17 11:50:09;;;;;;;5.07;2.07;;;12.10;99.90;;;;;;4932378;29;20287;-93
2023/06/17 11:52:43;;;;;;;5.83;1.73;;;12.10;99.90;;;;;;4938601;29;20236;-92
2023/06/17 11:55:16;;;;;;;8.00;2.00;;;12.10;99.90;;;;;;4922691;29;20213;-93
2023/06/17 11:57:48;;;;;;;6.57;1.70;;;12.10;99.90;;;;;;4918531;29;20224;-92
2023/06/17 12:00:21;;;;;;;8.30;1.90;;;12.10;99.90;;;;;;4931211;29;20248;-91
2023/06/17 12:02:53;;;;;;;8.57;1.90;;;12.10;99.90;;;;;;4938033;29;20611;-91
2023/06/17 12:05:29;;;;;;;6.13;1.80;;;12.10;99.90;;;;;;4937732;29;20223;-92
2023/06/17 12:08:03;;;;;;;8.23;1.97;;;12.00;99.90;;;;;;4936886;29;20219;-93
2023/06/17 12:10:39;;;;;;;8.87;1.90;;;12.00;99.90;;;;;;4938653;29;20204;-92
2023/06/17 12:13:16;;;;;;;9.47;2.10;;;12.00;99.90;;;;;;4937693;29;20601;-93
2023/06/17 12:15:48;;;;;;;6.97;1.90;;;11.90;99.90;;;;;;4921380;29;20209;-92
2023/06/17 12:18:19;;;;;;;7.50;1.70;;;11.80;99.90;;;;;;4922025;29;20201;-91
2023/06/17 12:20:51;;;;;;;7.13;1.90;;;11.80;99.90;;;;;;4918596;29;20542;-93
2023/06/17 12:23:24;;;;;;;6.73;1.70;;;11.70;99.90;;;;;;4918625;29;20213;-91
2023/06/17 12:25:56;;;;;;;6.17;1.53;;;11.70;99.90;;;;;;4918644;29;20677;-95
2023/06/17 12:28:27;;;;;;;10.00;2.13;;;11.70;99.90;;;;;;4917570;29;20201;-93
2023/06/17 12:30:58;;;;;;;7.77;2.10;;;11.60;99.90;;;;;;4923131;29;20220;-94
2023/06/17 12:33:30;;;;;;;7.27;1.50;;;11.50;99.90;;;;;;4936901;29;20238;-94
2023/06/17 12:36:01;;;;;;;7.93;1.63;;;11.60;99.90;;;;;;4918607;29;20205;-93
2023/06/17 12:38:35;;;;;;;8.13;1.87;;;11.50;99.90;;;;;;4917532;29;20209;-93
2023/06/17 12:41:08;;;;;;;4.67;1.43;;;11.50;99.90;;;;;;4920951;29;20200;-93
2023/06/17 12:43:40;;;;;;;7.53;1.80;;;11.50;99.90;;;;;;4930061;29;20211;-94
2023/06/17 12:46:11;;;;;;;7.17;1.67;;;11.50;99.90;;;;;;4926430;29;20219;-94
2023/06/17 12:48:43;;;;;;;7.73;1.87;;;11.50;99.90;;;;;;4577849;29;10001485;-94
2023/06/17 12:51:14;;;;;;;6.87;2.00;;;11.50;99.90;;;;;;4929645;29;20220;-94
2023/06/17 12:53:48;;;;;;;7.57;1.90;;;11.50;99.90;;;;;;4922069;29;20286;-93
2023/06/17 12:56:20;;;;;;;3.87;1.70;;;11.50;99.90;;;;;;4937883;29;20287;-92
2023/06/17 12:58:52;;;;;;;7.50;1.73;;;11.50;99.90;;;;;;4936504;29;20570;-92
2023/06/17 13:01:24;;;;;;;5.93;1.77;;;11.50;99.90;;;;;;4937603;29;20271;-92
2023/06/17 13:03:57;;;;;;;6.83;1.83;;;11.60;99.90;;;;;;4937729;29;20231;-92
2023/06/17 13:06:29;;;;;;;9.90;2.80;;;11.50;99.90;;;;;;4937713;29;20276;-92
2023/06/17 13:09:02;;;;;;;10.23;1.70;;;11.50;99.90;;;;;;4919446;29;20212;-93
2023/06/17 13:11:34;;;;;;;8.80;2.10;;;11.50;99.90;;;;;;4930297;29;20255;-92
2023/06/17 13:14:06;;;;;;;5.80;1.63;;;11.50;99.90;;;;;;4938779;29;20270;-93